createdAt,value
2018-05-04T00:01:02.188Z,4.00
2018-05-04T00:03:30.417Z,3.90
2018-05-04T00:05:57.876Z,4.10
2018-05-04T00:08:25.356Z,4.60
2018-05-04T00:10:52.831Z,4.13
2018-05-04T00:13:21.405Z,4.30
2018-05-04T00:15:49.633Z,5.07
2018-05-04T00:18:17.106Z,4.07
2018-05-04T00:20:44.585Z,4.47
2018-05-04T00:23:12.049Z,3.93
2018-05-04T00:25:40.301Z,4.03
2018-05-04T00:28:07.763Z,3.93
2018-05-04T00:30:35.228Z,4.63
2018-05-04T00:33:02.701Z,4.03
2018-05-04T00:35:30.937Z,4.43
2018-05-04T00:37:58.412Z,4.03
2018-05-04T00:40:25.877Z,4.67
2018-05-04T00:42:54.412Z,4.10
2018-05-04T00:45:21.872Z,4.40
2018-05-04T00:47:49.343Z,4.43
2018-05-04T00:50:16.822Z,4.33
2018-05-04T00:52:45.045Z,4.20
2018-05-04T00:55:12.530Z,4.90
2018-05-04T00:57:39.992Z,4.50
2018-05-04T01:00:07.456Z,4.70
2018-05-04T01:02:34.934Z,4.17
2018-05-04T01:05:03.160Z,3.97
2018-05-04T01:07:30.644Z,4.40
2018-05-04T01:09:58.100Z,4.57
2018-05-04T01:12:26.338Z,4.27
2018-05-04T01:14:53.832Z,4.53
2018-05-04T01:17:22.063Z,5.13
2018-05-04T01:19:49.540Z,4.53
2018-05-04T01:22:17.004Z,5.13
2018-05-04T01:24:44.484Z,4.57
2018-05-04T01:27:12.732Z,4.60
2018-05-04T01:29:40.192Z,4.80
2018-05-04T01:32:07.698Z,4.87
2018-05-04T01:34:35.176Z,5.03
2018-05-04T01:37:02.637Z,5.13
2018-05-04T01:39:30.113Z,5.10
2018-05-04T01:41:57.588Z,5.40
2018-05-04T01:44:25.829Z,5.17
2018-05-04T01:46:53.296Z,5.03
2018-05-04T01:49:20.773Z,5.47
2018-05-04T01:51:49.013Z,5.43
2018-05-04T01:54:16.488Z,5.60
2018-05-04T01:56:43.964Z,5.17
2018-05-04T01:59:12.208Z,6.00
2018-05-04T02:01:40.448Z,5.70
2018-05-04T02:04:07.924Z,5.67
2018-05-04T02:06:35.456Z,5.93
2018-05-04T02:09:03.280Z,6.07
2018-05-04T02:11:30.778Z,6.47
2018-05-04T02:13:58.235Z,6.30
2018-05-04T02:16:25.727Z,6.87
2018-05-04T02:18:53.966Z,6.63
2018-05-04T02:21:21.445Z,6.37
2018-05-04T02:23:48.909Z,6.90
2018-05-04T02:26:16.384Z,6.70
2018-05-04T02:28:43.853Z,6.93
2018-05-04T02:31:12.468Z,7.07
2018-05-04T02:33:39.946Z,7.23
2018-05-04T02:36:07.623Z,7.13
2018-05-04T02:38:37.993Z,7.93
2018-05-04T02:41:05.506Z,7.63
2018-05-04T02:43:33.065Z,7.30
2018-05-04T02:46:01.349Z,8.80
2018-05-04T02:48:28.820Z,7.47
2018-05-04T02:50:57.097Z,7.93
2018-05-04T02:53:24.577Z,7.43
2018-05-04T02:55:52.522Z,7.23
2018-05-04T02:58:20.285Z,7.67
2018-05-04T03:03:23.363Z,7.30
2018-05-04T03:05:50.828Z,8.13
2018-05-04T03:08:18.317Z,7.90
2018-05-04T03:10:45.781Z,7.97
2018-05-04T03:13:14.604Z,7.40
2018-05-04T03:15:43.320Z,8.23
2018-05-04T03:18:12.023Z,7.53
2018-05-04T03:20:39.532Z,7.87
2018-05-04T03:23:07.032Z,7.90
2018-05-04T03:25:34.501Z,7.97
2018-05-04T03:28:02.749Z,8.13
2018-05-04T03:30:30.217Z,7.80
2018-05-04T03:32:57.705Z,8.27
2018-05-04T03:35:25.274Z,8.03
2018-05-04T03:37:52.763Z,8.57
2018-05-04T03:40:20.253Z,8.43
2018-05-04T03:42:48.508Z,8.23
2018-05-04T03:45:15.993Z,7.83
2018-05-04T03:47:44.225Z,7.67
2018-05-04T03:50:11.713Z,8.40
2018-05-04T03:52:39.957Z,8.87
2018-05-04T03:55:08.695Z,8.57
2018-05-04T03:57:50.228Z,8.07
2018-05-04T04:00:29.756Z,8.10
2018-05-04T04:03:09.272Z,8.83
2018-05-04T04:05:36.796Z,10.30
2018-05-04T04:08:05.029Z,11.03
2018-05-04T04:10:32.533Z,9.47
2018-05-04T04:13:00.785Z,10.53
2018-05-04T04:15:28.281Z,10.13
2018-05-04T04:17:55.786Z,9.60
2018-05-04T04:20:23.280Z,9.97
2018-05-04T04:22:51.582Z,8.63
2018-05-04T04:25:19.068Z,9.20
2018-05-04T04:27:46.596Z,9.13
2018-05-04T04:30:14.062Z,7.67
2018-05-04T04:32:41.546Z,9.27
2018-05-04T04:35:09.069Z,8.47
2018-05-04T04:37:36.567Z,9.93
2018-05-04T04:40:04.049Z,10.77
2018-05-04T04:42:32.312Z,10.63
2018-05-04T04:44:59.781Z,10.23
2018-05-04T04:47:28.037Z,10.00
2018-05-04T04:49:55.511Z,8.77
2018-05-04T04:52:23.766Z,8.40
2018-05-04T04:54:51.251Z,7.90
2018-05-04T04:57:18.746Z,7.00
2018-05-04T04:59:46.256Z,5.70
2018-05-04T05:02:14.512Z,6.43
2018-05-04T05:04:41.980Z,5.60
2018-05-04T05:07:09.440Z,6.80
2018-05-04T05:09:37.705Z,5.93
2018-05-04T05:12:05.173Z,6.30
2018-05-04T05:14:33.420Z,6.10
2018-05-04T05:17:00.930Z,5.77
2018-05-04T05:19:28.412Z,6.00
2018-05-04T05:21:55.896Z,7.37
2018-05-04T05:24:23.390Z,7.97
2018-05-04T05:26:50.861Z,8.53
2018-05-04T05:29:18.347Z,7.73
2018-05-04T05:31:45.869Z,8.07
2018-05-04T05:34:13.349Z,8.03
2018-05-04T05:36:40.813Z,7.60
2018-05-04T05:39:08.293Z,6.90
2018-05-04T05:41:35.761Z,6.00
2018-05-04T05:44:04.023Z,6.33
2018-05-04T05:46:31.493Z,6.20
2018-05-04T05:48:59.740Z,7.13
2018-05-04T05:51:27.213Z,7.30
2018-05-04T05:53:54.713Z,6.90
2018-05-04T05:56:22.184Z,6.47
2018-05-04T05:58:49.668Z,6.47
2018-05-04T06:01:17.137Z,6.47
2018-05-04T06:03:44.851Z,5.97
2018-05-04T06:06:12.403Z,6.13
2018-05-04T06:08:39.874Z,6.47
2018-05-04T06:11:07.365Z,6.07
2018-05-04T06:13:34.832Z,6.10
2018-05-04T06:16:03.101Z,6.77
2018-05-04T06:18:30.570Z,6.40
2018-05-04T06:20:58.858Z,6.50
2018-05-04T06:23:27.076Z,5.17
2018-05-04T06:25:54.563Z,5.90
2018-05-04T06:28:22.792Z,5.67
2018-05-04T06:30:50.308Z,5.90
2018-05-04T06:33:18.541Z,6.10
2018-05-04T06:35:46.034Z,5.80
2018-05-04T06:38:14.269Z,5.70
2018-05-04T06:40:41.774Z,6.03
2018-05-04T06:43:10.009Z,6.53
2018-05-04T06:45:37.931Z,6.47
2018-05-04T06:48:05.464Z,6.43
2018-05-04T06:50:32.876Z,6.80
2018-05-04T06:53:00.360Z,7.07
2018-05-04T06:55:28.598Z,6.50
2018-05-04T06:57:56.097Z,6.77
2018-05-04T07:00:24.335Z,6.47
2018-05-04T07:02:51.817Z,8.17
2018-05-04T07:05:19.288Z,7.20
2018-05-04T07:07:47.534Z,6.87
2018-05-04T07:10:15.005Z,7.23
2018-05-04T07:12:42.488Z,6.70
2018-05-04T07:15:10.024Z,7.30
2018-05-04T07:17:37.452Z,6.80
2018-05-04T07:20:04.954Z,6.80
2018-05-04T07:22:32.448Z,6.27
2018-05-04T07:24:59.925Z,7.20
2018-05-04T07:27:27.429Z,6.93
2018-05-04T07:29:54.899Z,7.63
2018-05-04T07:32:22.365Z,7.13
2018-05-04T07:34:49.855Z,6.27
2018-05-04T07:37:17.321Z,6.23
2018-05-04T07:39:44.803Z,6.23
2018-05-04T07:42:12.377Z,6.70
2018-05-04T07:44:40.700Z,6.63
2018-05-04T07:47:08.183Z,6.93
2018-05-04T07:49:36.481Z,6.83
2018-05-04T07:52:03.953Z,6.50
2018-05-04T07:54:31.449Z,6.27
2018-05-04T07:56:58.912Z,6.03
2018-05-04T07:59:26.425Z,6.50
2018-05-04T08:01:53.898Z,6.37
2018-05-04T08:04:21.413Z,6.23
2018-05-04T08:06:48.885Z,6.10
2018-05-04T08:09:16.373Z,6.67
2018-05-04T08:11:43.853Z,7.00
2018-05-04T08:14:11.375Z,6.20
2018-05-04T08:16:38.844Z,5.83
2018-05-04T08:19:06.308Z,6.23
2018-05-04T08:21:34.598Z,5.50
2018-05-04T08:24:02.097Z,6.03
2018-05-04T08:26:29.587Z,6.37
2018-05-04T08:28:58.564Z,6.73
2018-05-04T08:31:26.053Z,6.30
2018-05-04T08:33:53.524Z,6.33
2018-05-04T08:36:21.788Z,6.70
2018-05-04T08:38:49.261Z,5.67
2018-05-04T08:41:17.561Z,6.23
2018-05-04T08:43:45.032Z,6.90
2018-05-04T08:46:12.522Z,7.20
2018-05-04T08:48:39.992Z,6.50
2018-05-04T08:51:08.301Z,5.90
2018-05-04T08:53:36.513Z,5.77
2018-05-04T08:56:03.974Z,5.30
2018-05-04T08:58:31.457Z,6.20
2018-05-04T09:00:59.696Z,5.70
2018-05-04T09:03:27.185Z,5.70
2018-05-04T09:05:55.424Z,5.40
2018-05-04T09:08:22.893Z,6.23
2018-05-04T09:10:50.377Z,6.40
2018-05-04T09:13:19.081Z,6.33
2018-05-04T09:15:46.550Z,5.97
2018-05-04T09:18:14.079Z,5.87
2018-05-04T09:20:42.329Z,6.70
2018-05-04T09:23:09.814Z,6.43
2018-05-04T09:25:38.040Z,5.37
2018-05-04T09:28:05.529Z,6.47
2018-05-04T09:30:33.765Z,6.30
2018-05-04T09:33:01.251Z,6.20
2018-05-04T09:35:28.752Z,5.30
2018-05-04T09:37:56.242Z,6.20
2018-05-04T09:40:23.755Z,5.57
2018-05-04T09:42:51.324Z,6.20
2018-05-04T09:45:18.821Z,6.13
2018-05-04T09:47:46.287Z,5.60
2018-05-04T09:50:13.777Z,5.40
2018-05-04T09:52:41.259Z,5.30
2018-05-04T09:55:08.761Z,5.60
2018-05-04T09:57:36.243Z,5.57
2018-05-04T10:00:04.493Z,5.87
2018-05-04T10:02:31.965Z,5.60
2018-05-04T10:05:00.220Z,5.70
2018-05-04T10:07:27.687Z,5.70
2018-05-04T10:09:55.934Z,5.80
2018-05-04T10:12:23.412Z,5.13
2018-05-04T10:14:50.888Z,6.23
2018-05-04T10:17:18.366Z,6.20
2018-05-04T10:19:45.860Z,5.93
2018-05-04T10:22:13.344Z,6.73
2018-05-04T10:24:41.587Z,6.27
2018-05-04T10:27:09.077Z,5.87
2018-05-04T10:29:37.325Z,6.83
2018-05-04T10:32:05.579Z,6.60
2018-05-04T10:34:33.065Z,6.90
2018-05-04T10:37:00.544Z,6.77
2018-05-04T10:39:29.123Z,6.57
2018-05-04T10:41:57.372Z,6.70
2018-05-04T10:44:24.847Z,7.00
2018-05-04T10:46:53.101Z,6.50
2018-05-04T10:49:20.577Z,6.50
2018-05-04T10:51:48.073Z,6.50
2018-05-04T10:54:15.566Z,6.47
2018-05-04T10:56:43.052Z,5.93
2018-05-04T10:59:11.300Z,7.47
2018-05-04T11:01:38.801Z,6.70
2018-05-04T11:04:06.292Z,7.03
2018-05-04T11:06:33.765Z,7.10
2018-05-04T11:09:01.253Z,6.73
2018-05-04T11:11:29.488Z,5.90
2018-05-04T11:13:56.985Z,6.77
2018-05-04T11:16:25.217Z,6.20
2018-05-04T11:18:52.704Z,6.33
2018-05-04T11:21:20.176Z,7.23
2018-05-04T11:23:48.483Z,8.07
2018-05-04T11:26:15.948Z,6.57
2018-05-04T11:28:43.432Z,6.63
2018-05-04T11:31:10.901Z,6.17
2018-05-04T11:33:38.388Z,6.57
2018-05-04T11:36:05.860Z,6.77
2018-05-04T11:38:33.340Z,6.20
2018-05-04T11:41:00.813Z,6.13
2018-05-04T11:43:28.298Z,6.17
2018-05-04T11:45:56.548Z,5.93
2018-05-04T11:48:24.017Z,6.17
2018-05-04T11:50:51.528Z,5.60
2018-05-04T11:53:19.003Z,7.10
2018-05-04T11:55:46.505Z,5.43
2018-05-04T11:58:14.737Z,6.60
2018-05-04T12:00:42.225Z,6.13
2018-05-04T12:03:10.453Z,6.00
2018-05-04T12:05:37.945Z,5.13
2018-05-04T12:08:05.413Z,5.60
2018-05-04T12:10:33.668Z,5.80
2018-05-04T12:13:01.151Z,5.43
2018-05-04T12:15:29.401Z,5.40
2018-05-04T12:17:56.880Z,6.13
2018-05-04T12:20:25.128Z,5.73
2018-05-04T12:22:53.412Z,4.83
2018-05-04T12:25:20.859Z,6.23
2018-05-04T12:27:48.325Z,5.80
2018-05-04T12:30:15.818Z,5.17
2018-05-04T12:32:43.322Z,5.70
2018-05-04T12:35:10.793Z,5.33
2018-05-04T12:37:39.045Z,5.37
2018-05-04T12:40:06.513Z,6.00
2018-05-04T12:42:34.001Z,5.80
2018-05-04T12:45:01.470Z,5.73
2018-05-04T12:47:28.965Z,5.70
2018-05-04T12:49:56.471Z,5.97
2018-05-04T12:52:23.962Z,5.53
2018-05-04T12:54:51.441Z,5.93
2018-05-04T12:57:18.938Z,5.77
2018-05-04T12:59:47.180Z,4.80
2018-05-04T13:02:14.676Z,6.50
2018-05-04T13:04:42.141Z,5.93
2018-05-04T13:07:09.605Z,6.00
2018-05-04T13:09:37.101Z,5.67
2018-05-04T13:12:05.338Z,5.77
2018-05-04T13:14:32.817Z,6.57
2018-05-04T13:17:00.280Z,5.80
2018-05-04T13:19:27.768Z,5.67
2018-05-04T13:21:55.997Z,5.90
2018-05-04T13:24:23.484Z,5.57
2018-05-04T13:26:50.945Z,6.00
2018-05-04T13:29:19.205Z,6.43
2018-05-04T13:31:46.681Z,6.03
2018-05-04T13:34:14.940Z,6.10
2018-05-04T13:36:42.459Z,6.27
2018-05-04T13:39:09.956Z,5.30
2018-05-04T13:41:37.428Z,6.07
2018-05-04T13:44:05.685Z,5.83
2018-05-04T13:46:33.950Z,6.03
2018-05-04T13:49:01.413Z,5.63
2018-05-04T13:51:28.980Z,5.80
2018-05-04T13:53:56.395Z,5.90
2018-05-04T13:56:23.892Z,6.07
2018-05-04T13:58:51.367Z,5.80
2018-05-04T14:01:18.866Z,4.73
2018-05-04T14:03:46.433Z,6.23
2018-05-04T14:06:14.629Z,5.67
2018-05-04T14:08:42.089Z,6.13
2018-05-04T14:11:09.569Z,6.27
2018-05-04T14:13:37.808Z,5.53
2018-05-04T14:16:05.291Z,4.90
2018-05-04T14:18:33.521Z,5.30
2018-05-04T14:21:01.013Z,5.00
2018-05-04T14:23:29.269Z,5.03
2018-05-04T14:25:56.746Z,5.17
2018-05-04T14:28:24.980Z,5.20
2018-05-04T14:30:52.460Z,5.43
2018-05-04T14:33:19.945Z,5.50
2018-05-04T14:35:48.180Z,5.07
2018-05-04T14:38:15.660Z,5.00
2018-05-04T14:40:43.972Z,5.27
2018-05-04T14:43:11.456Z,5.57
2018-05-04T14:45:38.920Z,5.83
2018-05-04T14:48:06.421Z,5.60
2018-05-04T14:50:34.660Z,5.43
2018-05-04T14:53:02.148Z,5.50
2018-05-04T14:55:30.381Z,6.40
2018-05-04T14:57:57.871Z,5.80
2018-05-04T15:00:26.103Z,5.53
2018-05-04T15:02:53.580Z,5.03
2018-05-04T15:05:21.040Z,6.13
2018-05-04T15:07:50.036Z,6.60
2018-05-04T15:10:17.501Z,6.10
2018-05-04T15:12:45.752Z,5.93
2018-05-04T15:15:13.217Z,5.63
2018-05-04T15:17:40.685Z,6.47
2018-05-04T15:20:08.946Z,5.60
2018-05-04T15:22:36.419Z,6.87
2018-05-04T15:25:04.722Z,6.47
2018-05-04T15:27:32.157Z,6.57
2018-05-04T15:30:00.458Z,6.27
2018-05-04T15:32:27.919Z,6.10
2018-05-04T15:34:55.398Z,6.07
2018-05-04T15:37:22.860Z,5.83
2018-05-04T15:39:50.354Z,7.20
2018-05-04T15:42:18.590Z,6.13
2018-05-04T15:44:46.072Z,5.17
2018-05-04T15:47:13.540Z,6.00
2018-05-04T15:49:41.794Z,5.77
2018-05-04T15:52:09.264Z,6.30
2018-05-04T15:54:37.507Z,5.60
2018-05-04T15:57:04.988Z,5.40
2018-05-04T15:59:32.455Z,5.77
2018-05-04T16:02:00.720Z,5.80
2018-05-04T16:04:28.185Z,5.50
2018-05-04T16:06:56.445Z,5.70
2018-05-04T16:09:23.907Z,5.90
2018-05-04T16:11:51.391Z,5.20
2018-05-04T16:14:18.867Z,6.13
2018-05-04T16:16:46.354Z,6.37
2018-05-04T16:19:13.816Z,5.50
2018-05-04T16:21:41.301Z,5.87
2018-05-04T16:24:09.537Z,5.63
2018-05-04T16:26:37.025Z,6.00
2018-05-04T16:29:05.261Z,5.23
2018-05-04T16:31:32.725Z,5.40
2018-05-04T16:34:00.211Z,5.27
2018-05-04T16:36:28.453Z,5.77
2018-05-04T16:38:55.954Z,5.13
2018-05-04T16:41:23.425Z,5.60
2018-05-04T16:43:50.914Z,5.23
2018-05-04T16:49:25.268Z,5.30
2018-05-04T16:51:53.496Z,5.27
2018-05-04T16:54:20.985Z,5.00
2018-05-04T16:56:48.457Z,4.37
2018-05-04T16:59:15.946Z,4.80
2018-05-04T17:01:43.418Z,4.77
2018-05-04T17:04:10.921Z,4.90
2018-05-04T17:06:38.385Z,5.20
2018-05-04T17:09:05.960Z,5.33
2018-05-04T17:11:33.353Z,5.53
2018-05-04T17:14:00.846Z,5.10
2018-05-04T17:16:28.319Z,4.53
2018-05-04T17:18:56.550Z,4.83
2018-05-04T17:21:24.034Z,4.77
2018-05-04T17:23:51.516Z,5.20
2018-05-04T17:26:19.792Z,5.40
2018-05-04T17:28:48.020Z,5.23
2018-05-04T17:31:15.501Z,5.67
2018-05-04T17:33:42.973Z,7.10
2018-05-04T17:36:11.253Z,5.17
2018-05-04T17:38:39.488Z,4.90
2018-05-04T17:41:06.956Z,5.53
2018-05-04T17:43:34.440Z,4.73
2018-05-04T17:46:02.678Z,4.77
2018-05-04T17:48:30.172Z,5.10
2018-05-04T17:50:58.404Z,4.43
2018-05-04T17:53:25.887Z,4.50
2018-05-04T17:55:54.125Z,4.90
2018-05-04T17:58:21.757Z,4.83
2018-05-04T18:00:49.229Z,4.90
2018-05-04T18:03:16.698Z,4.93
2018-05-04T18:05:44.216Z,4.97
2018-05-04T18:08:11.690Z,4.90
2018-05-04T18:10:39.177Z,4.97
2018-05-04T18:13:06.658Z,4.63
2018-05-04T18:15:34.912Z,5.13
2018-05-04T18:18:02.417Z,5.20
2018-05-04T18:20:29.917Z,4.87
2018-05-04T18:22:57.416Z,5.23
2018-05-04T18:25:25.652Z,5.50
2018-05-04T18:27:53.145Z,5.13
2018-05-04T18:30:20.625Z,4.93
2018-05-04T18:32:48.135Z,4.67
2018-05-04T18:35:15.606Z,5.50
2018-05-04T18:37:43.859Z,5.60
2018-05-04T18:40:11.349Z,5.70
2018-05-04T18:42:38.851Z,4.93
2018-05-04T18:45:06.343Z,5.40
2018-05-04T18:47:34.583Z,5.57
2018-05-04T18:50:02.113Z,6.57
2018-05-04T18:52:29.601Z,6.13
2018-05-04T18:54:57.112Z,5.30
2018-05-04T18:57:24.603Z,5.70
2018-05-04T18:59:52.125Z,5.90
2018-05-04T19:02:25.375Z,6.00
2018-05-04T19:04:52.889Z,5.80
2018-05-04T19:07:20.361Z,5.97
2018-05-04T19:09:47.829Z,5.83
2018-05-04T19:12:15.329Z,5.87
2018-05-04T19:14:43.573Z,6.13
2018-05-04T19:17:11.066Z,5.90
2018-05-04T19:19:39.305Z,6.40
2018-05-04T19:22:06.810Z,6.60
2018-05-04T19:24:34.384Z,7.27
2018-05-04T19:27:01.856Z,6.33
2018-05-04T19:29:29.477Z,6.37
2018-05-04T19:31:57.708Z,6.43
2018-05-04T19:34:25.239Z,6.73
2018-05-04T19:36:52.701Z,6.50
2018-05-04T19:39:20.185Z,6.70
2018-05-04T19:41:47.681Z,6.37
2018-05-04T19:44:15.160Z,6.80
2018-05-04T19:46:42.664Z,8.00
2018-05-04T19:49:10.150Z,7.13
2018-05-04T19:51:38.480Z,6.93
2018-05-04T19:54:05.949Z,6.03
2018-05-04T19:56:33.437Z,7.23
2018-05-04T19:59:01.745Z,6.70
2018-05-04T20:01:29.961Z,7.20
2018-05-04T20:03:58.204Z,7.23
2018-05-04T20:06:25.681Z,10.10
2018-05-04T20:08:53.943Z,10.27
2018-05-04T20:11:21.422Z,10.63
2018-05-04T20:13:48.926Z,7.70
2018-05-04T20:16:16.425Z,7.10
2018-05-04T20:18:44.244Z,7.37
2018-05-04T20:21:11.750Z,7.30
2018-05-04T20:23:39.996Z,7.60
2018-05-04T20:26:07.485Z,7.27
2018-05-04T20:28:34.989Z,8.23
2018-05-04T20:31:02.701Z,9.27
2018-05-04T20:33:31.365Z,10.83
2018-05-04T20:36:00.572Z,10.80
2018-05-04T20:38:28.381Z,10.83
2018-05-04T20:40:55.862Z,12.07
2018-05-04T20:43:23.353Z,10.97
2018-05-04T20:45:50.829Z,10.63
2018-05-04T20:48:19.082Z,9.50
2018-05-04T20:50:46.559Z,9.03
2018-05-04T20:53:14.910Z,8.20
2018-05-04T20:55:42.382Z,7.97
2018-05-04T20:58:09.946Z,7.50
2018-05-04T21:00:37.374Z,7.63
2018-05-04T21:03:04.857Z,7.37
2018-05-04T21:05:32.369Z,7.23
2018-05-04T21:07:59.876Z,7.40
2018-05-04T21:10:27.532Z,7.13
2018-05-04T21:12:55.776Z,7.47
2018-05-04T21:15:23.250Z,6.63
2018-05-04T21:17:51.090Z,6.50
2018-05-04T21:20:18.562Z,6.53
2018-05-04T21:22:46.053Z,6.60
2018-05-04T21:25:14.292Z,7.33
2018-05-04T21:27:41.785Z,7.40
2018-05-04T21:30:09.265Z,8.07
2018-05-04T21:32:36.780Z,8.87
2018-05-04T21:35:05.037Z,7.53
2018-05-04T21:37:32.508Z,7.27
2018-05-04T21:40:00.009Z,7.60
2018-05-04T21:42:27.484Z,7.43
2018-05-04T21:44:55.005Z,6.23
2018-05-04T21:47:23.229Z,6.80
2018-05-04T21:49:50.711Z,6.37
2018-05-04T21:52:18.193Z,6.83
2018-05-04T21:54:46.443Z,6.40
2018-05-04T21:57:13.940Z,6.33
2018-05-04T21:59:41.417Z,6.50
2018-05-04T22:02:08.905Z,7.03
2018-05-04T22:04:36.390Z,6.70
2018-05-04T22:07:04.630Z,6.87
2018-05-04T22:09:32.116Z,6.57
2018-05-04T22:12:00.379Z,6.80
2018-05-04T22:14:27.873Z,5.80
2018-05-04T22:16:55.346Z,6.10
2018-05-04T22:19:22.852Z,6.03
2018-05-04T22:21:51.086Z,6.10
2018-05-04T22:24:18.553Z,5.63
2018-05-04T22:26:46.036Z,6.50
2018-05-04T22:29:14.273Z,6.50
2018-05-04T22:31:41.765Z,6.23
2018-05-04T22:34:10.001Z,6.33
2018-05-04T22:36:37.494Z,6.60
2018-05-04T22:39:05.888Z,6.73
2018-05-04T22:41:34.121Z,6.67
2018-05-04T22:44:01.630Z,6.70
2018-05-04T22:46:29.096Z,6.73
2018-05-04T22:48:56.609Z,6.37
2018-05-04T22:51:24.085Z,6.83
2018-05-04T22:53:52.757Z,6.43
2018-05-04T22:56:20.985Z,6.20
2018-05-04T22:58:48.452Z,5.90
2018-05-04T23:01:15.936Z,5.93
2018-05-04T23:03:43.417Z,6.27
2018-05-04T23:06:11.668Z,6.43
2018-05-04T23:08:39.141Z,5.93
2018-05-04T23:11:07.384Z,6.70
2018-05-04T23:13:34.876Z,6.37
2018-05-04T23:16:03.108Z,6.93
2018-05-04T23:18:30.589Z,6.13
2018-05-04T23:20:58.885Z,6.10
2018-05-04T23:23:26.325Z,5.73
2018-05-04T23:25:54.564Z,5.80
2018-05-04T23:28:22.047Z,6.23
2018-05-04T23:30:49.532Z,6.40
2018-05-04T23:33:17.102Z,6.50
2018-05-04T23:35:44.589Z,6.80
2018-05-04T23:38:12.085Z,6.57
2018-05-04T23:40:40.341Z,6.47
2018-05-04T23:43:07.824Z,6.23
2018-05-04T23:45:36.062Z,6.23
2018-05-04T23:48:03.541Z,6.43
2018-05-04T23:50:31.781Z,6.53
2018-05-04T23:52:59.264Z,5.57
2018-05-04T23:55:26.740Z,6.80
2018-05-04T23:57:54.259Z,6.23
